createdAt,value
2019-04-16T00:01:57.694Z,98198.56
2019-04-16T00:04:42.064Z,98197.61
2019-04-16T00:07:17.714Z,98193.52
2019-04-16T00:09:50.415Z,98188.03
2019-04-16T00:12:23.150Z,98184.45
2019-04-16T00:14:55.891Z,98186.02
2019-04-16T00:17:27.059Z,98183.60
2019-04-16T00:19:58.150Z,98184.66
2019-04-16T00:22:36.633Z,98184.11
2019-04-16T00:25:07.949Z,98175.49
2019-04-16T00:27:39.102Z,98167.25
2019-04-16T00:30:10.515Z,98169.22
2019-04-16T00:32:42.633Z,98166.23
2019-04-16T00:35:15.662Z,98168.09
2019-04-16T00:37:51.372Z,98168.16
2019-04-16T00:40:19.548Z,98158.89
2019-04-16T00:42:49.764Z,98162.73
2019-04-16T00:45:21.003Z,98164.53
2019-04-16T00:47:52.167Z,98167.41
2019-04-16T00:50:23.487Z,98165.91
2019-04-16T00:52:54.379Z,98171.44
2019-04-16T00:55:25.627Z,98157.63
2019-04-16T00:57:56.594Z,98161.19
2019-04-16T01:00:30.622Z,98161.69
2019-04-16T01:03:00.746Z,98158.87
2019-04-16T01:05:35.059Z,98153.78
2019-04-16T01:08:04.777Z,98152.25
2019-04-16T01:10:36.373Z,98153.66
2019-04-16T01:13:07.363Z,98150.20
2019-04-16T01:15:37.539Z,98152.84
2019-04-16T01:18:09.012Z,98147.38
2019-04-16T01:20:40.456Z,98150.89
2019-04-16T01:23:17.587Z,98159.13
2019-04-16T01:25:45.877Z,98157.53
2019-04-16T01:28:36.899Z,98162.53
2019-04-16T01:31:27.690Z,98164.89
2019-04-16T01:34:00.481Z,98162.94
2019-04-16T01:36:39.122Z,98161.88
2019-04-16T01:39:18.102Z,98168.70
2019-04-16T01:41:47.517Z,98170.80
2019-04-16T01:44:18.665Z,98165.60
2019-04-16T01:46:49.627Z,98169.24
2019-04-16T01:49:20.666Z,98171.54
2019-04-16T01:51:51.659Z,98170.03
2019-04-16T01:54:23.477Z,98169.47
2019-04-16T01:56:54.507Z,98170.94
2019-04-16T01:59:25.759Z,98170.73
2019-04-16T02:01:56.899Z,98173.17
2019-04-16T02:04:27.014Z,98179.33
2019-04-16T02:06:58.201Z,98175.90
2019-04-16T02:09:34.234Z,98178.06
2019-04-16T02:12:02.312Z,98174.31
2019-04-16T02:14:33.378Z,98175.77
2019-04-16T02:17:04.839Z,98174.58
2019-04-16T02:19:35.930Z,98178.22
2019-04-16T02:22:07.127Z,98175.78
2019-04-16T02:24:38.078Z,98180.19
2019-04-16T02:27:09.289Z,98178.47
2019-04-16T02:29:40.276Z,98180.74
2019-04-16T02:32:11.740Z,98180.84
2019-04-16T02:34:43.117Z,98192.53
2019-04-16T02:37:13.230Z,98195.56
2019-04-16T02:39:49.100Z,98193.45
2019-04-16T02:42:17.093Z,98195.76
2019-04-16T02:44:50.038Z,98188.50
2019-04-16T02:47:21.023Z,98196.76
2019-04-16T02:49:56.429Z,98194.61
2019-04-16T02:52:50.551Z,98192.97
2019-04-16T02:55:21.435Z,98187.91
2019-04-16T02:58:00.290Z,98190.17
2019-04-16T03:00:34.513Z,98195.84
2019-04-16T03:03:07.257Z,98191.12
2019-04-16T03:05:43.849Z,98190.34
2019-04-16T03:08:14.873Z,98189.56
2019-04-16T03:10:46.189Z,98189.65
2019-04-16T03:13:17.457Z,98185.36
2019-04-16T03:18:33.322Z,98194.43
2019-04-16T03:21:04.667Z,98194.14
2019-04-16T03:23:37.590Z,98189.06
2019-04-16T03:26:07.412Z,98190.78
2019-04-16T03:28:38.550Z,98192.52
2019-04-16T03:31:18.360Z,98194.24
2019-04-16T03:33:48.352Z,98188.27
2019-04-16T03:36:15.043Z,98190.44
2019-04-16T03:38:46.136Z,98189.16
2019-04-16T03:41:17.406Z,98187.45
2019-04-16T03:43:48.648Z,98184.06
2019-04-16T03:46:19.701Z,98180.21
2019-04-16T03:48:52.645Z,98172.94
2019-04-16T03:51:23.524Z,98178.51
2019-04-16T03:53:54.719Z,98183.23
2019-04-16T03:56:27.623Z,98176.80
2019-04-16T03:58:57.513Z,98181.58
2019-04-16T04:01:28.713Z,98178.63
2019-04-16T04:03:59.964Z,98178.20
2019-04-16T04:06:31.152Z,98178.21
2019-04-16T04:09:02.134Z,98177.84
2019-04-16T04:11:33.763Z,98182.17
2019-04-16T04:14:04.882Z,98183.03
2019-04-16T04:16:36.113Z,98185.13
2019-04-16T04:19:07.066Z,98190.26
2019-04-16T04:21:38.209Z,98187.31
2019-04-16T04:24:09.137Z,98195.93
2019-04-16T04:26:42.051Z,98191.70
2019-04-16T04:29:12.925Z,98197.70
2019-04-16T04:31:45.428Z,98197.31
2019-04-16T04:34:17.409Z,98196.03
2019-04-16T04:36:47.936Z,98198.61
2019-04-16T04:39:19.040Z,98196.92
2019-04-16T04:41:52.593Z,98204.64
2019-04-16T04:44:23.031Z,98199.92
2019-04-16T04:46:55.128Z,98214.44
2019-04-16T04:49:30.090Z,98213.59
2019-04-16T04:51:59.347Z,98217.43
2019-04-16T04:54:30.606Z,98211.40
2019-04-16T04:57:01.644Z,98211.39
2019-04-16T04:59:36.487Z,98216.10
2019-04-16T05:02:05.817Z,98213.11
2019-04-16T05:04:49.601Z,98220.38
2019-04-16T05:07:20.828Z,98219.48
2019-04-16T05:09:50.924Z,98223.72
2019-04-16T05:12:24.423Z,98220.23
2019-04-16T05:14:58.657Z,98226.62
2019-04-16T05:17:29.652Z,98225.28
2019-04-16T05:20:00.891Z,98225.21
2019-04-16T05:22:34.907Z,98226.00
2019-04-16T05:25:07.406Z,98225.94
2019-04-16T05:27:41.016Z,98225.39
2019-04-16T05:30:11.569Z,98225.28
2019-04-16T05:32:42.652Z,98229.50
2019-04-16T05:35:13.689Z,98227.29
2019-04-16T05:37:44.742Z,98236.15
2019-04-16T05:40:16.083Z,98236.84
2019-04-16T05:42:47.251Z,98238.81
2019-04-16T05:45:18.573Z,98235.59
2019-04-16T05:47:51.798Z,98235.80
2019-04-16T05:50:23.138Z,98235.05
2019-04-16T05:52:54.671Z,98230.17
2019-04-16T05:55:27.534Z,98223.93
2019-04-16T05:57:59.616Z,98229.72
2019-04-16T06:00:42.434Z,98224.72
2019-04-16T06:03:13.431Z,98223.89
2019-04-16T06:05:45.920Z,98224.92
2019-04-16T06:08:17.039Z,98222.27
2019-04-16T06:10:51.102Z,98219.30
2019-04-16T06:13:31.176Z,98222.30
2019-04-16T06:16:07.097Z,98218.93
2019-04-16T06:18:40.175Z,98216.69
2019-04-16T06:21:18.797Z,98213.27
2019-04-16T06:24:04.240Z,98215.83
2019-04-16T06:26:39.863Z,98220.55
2019-04-16T06:29:15.525Z,98216.56
2019-04-16T06:31:50.938Z,98210.59
2019-04-16T06:34:29.869Z,98213.19
2019-04-16T06:37:13.298Z,98214.31
2019-04-16T06:39:46.161Z,98213.05
2019-04-16T06:42:20.978Z,98202.19
2019-04-16T06:44:52.487Z,98199.23
2019-04-16T06:47:31.345Z,98198.09
2019-04-16T06:50:31.532Z,98202.02
2019-04-16T06:53:10.842Z,98199.30
2019-04-16T06:55:59.973Z,98199.30
2019-04-16T06:58:51.510Z,98194.91
2019-04-16T07:01:27.120Z,98191.94
2019-04-16T07:03:59.997Z,98194.09
2019-04-16T07:06:48.244Z,98188.50
2019-04-16T07:09:23.391Z,98184.68
2019-04-16T07:11:55.071Z,98185.45
2019-04-16T07:14:26.405Z,98184.53
2019-04-16T07:17:00.194Z,98180.83
2019-04-16T07:19:30.915Z,98178.67
2019-04-16T07:22:03.245Z,98180.23
2019-04-16T07:24:37.184Z,98178.23
2019-04-16T07:27:08.845Z,98178.69
2019-04-16T07:29:41.465Z,98180.70
2019-04-16T07:32:14.309Z,98178.45
2019-04-16T07:34:47.057Z,98178.30
2019-04-16T07:37:24.227Z,98178.44
2019-04-16T07:39:56.761Z,98178.47
2019-04-16T07:42:29.667Z,98179.78
2019-04-16T07:45:16.616Z,98177.89
2019-04-16T07:48:06.117Z,98176.23
2019-04-16T07:50:55.064Z,98171.11
2019-04-16T07:53:30.638Z,98167.59
2019-04-16T07:56:03.130Z,98171.19
2019-04-16T07:58:33.212Z,98168.12
2019-04-16T08:01:05.219Z,98167.09
2019-04-16T08:03:36.110Z,98169.72
2019-04-16T08:06:07.431Z,98170.40
2019-04-16T08:08:38.369Z,98164.69
2019-04-16T08:11:09.561Z,98168.80
2019-04-16T08:13:41.590Z,98164.29
2019-04-16T08:16:14.142Z,98161.27
2019-04-16T08:18:49.270Z,98161.87
2019-04-16T08:21:22.735Z,98159.43
2019-04-16T08:23:55.137Z,98166.02
2019-04-16T08:26:26.450Z,98165.30
2019-04-16T08:28:57.401Z,98166.26
2019-04-16T08:31:28.693Z,98168.38
2019-04-16T08:33:59.580Z,98168.47
2019-04-16T08:36:29.709Z,98164.19
2019-04-16T08:39:05.842Z,98173.09
2019-04-16T08:41:33.442Z,98169.27
2019-04-16T08:44:05.076Z,98173.27
2019-04-16T08:46:36.168Z,98179.99
2019-04-16T08:49:07.412Z,98174.16
2019-04-16T08:51:38.419Z,98176.02
2019-04-16T08:54:09.468Z,98165.09
2019-04-16T08:56:40.442Z,98160.48
2019-04-16T08:59:11.970Z,98162.00
2019-04-16T09:01:42.918Z,98167.45
2019-04-16T09:04:14.240Z,98162.27
2019-04-16T09:06:46.213Z,98161.59
2019-04-16T09:09:24.456Z,98156.80
2019-04-16T09:11:56.490Z,98158.05
2019-04-16T09:14:29.511Z,98152.04
2019-04-16T09:17:09.535Z,98155.02
2019-04-16T09:19:39.369Z,98149.51
2019-04-16T09:22:15.958Z,98144.86
2019-04-16T09:24:47.644Z,98141.77
2019-04-16T09:27:28.672Z,98133.60
2019-04-16T09:30:00.905Z,98140.13
2019-04-16T09:32:46.331Z,98122.23
2019-04-16T09:35:20.324Z,98127.72
2019-04-16T09:38:02.242Z,98120.11
2019-04-16T09:40:51.179Z,98129.91
2019-04-16T09:43:32.936Z,98124.27
2019-04-16T09:46:10.587Z,98119.23
2019-04-16T09:48:36.878Z,98120.94
2019-04-16T09:51:07.843Z,98121.27
2019-04-16T09:53:40.265Z,98131.17
2019-04-16T09:56:30.870Z,98128.64
2019-04-16T09:59:04.594Z,98128.94
2019-04-16T10:01:40.272Z,98128.41
2019-04-16T10:04:15.929Z,98127.89
2019-04-16T10:06:48.548Z,98127.01
2019-04-16T10:09:21.632Z,98127.01
2019-04-16T10:11:51.512Z,98120.44
2019-04-16T10:14:22.477Z,98116.58
2019-04-16T10:16:54.168Z,98117.02
2019-04-16T10:19:25.147Z,98121.76
2019-04-16T10:21:56.225Z,98114.67
2019-04-16T10:24:45.016Z,98108.73
2019-04-16T10:27:17.822Z,98118.04
2019-04-16T10:29:48.745Z,98112.54
2019-04-16T10:32:20.095Z,98104.06
2019-04-16T10:35:11.925Z,98101.89
2019-04-16T10:37:43.053Z,98099.67
2019-04-16T10:40:24.703Z,98101.94
2019-04-16T10:43:06.740Z,98103.48
2019-04-16T10:45:42.011Z,98096.00
2019-04-16T10:48:32.802Z,98095.06
2019-04-16T10:51:21.823Z,98091.20
2019-04-16T10:54:10.641Z,98087.95
2019-04-16T10:56:59.811Z,98083.66
2019-04-16T10:59:38.872Z,98091.04
2019-04-16T11:02:11.727Z,98089.27
2019-04-16T11:05:03.261Z,98081.42
2019-04-16T11:07:36.991Z,98088.65
2019-04-16T11:10:11.640Z,98087.69
2019-04-16T11:12:41.679Z,98085.86
2019-04-16T11:15:14.811Z,98075.33
2019-04-16T11:17:47.158Z,98082.58
2019-04-16T11:20:19.866Z,98074.66
2019-04-16T11:22:50.864Z,98070.01
2019-04-16T11:25:21.043Z,98078.67
2019-04-16T11:27:52.491Z,98074.20
2019-04-16T11:30:30.984Z,98075.89
2019-04-16T11:33:02.235Z,98067.86
2019-04-16T11:35:33.863Z,98067.70
2019-04-16T11:38:05.342Z,98074.53
2019-04-16T11:40:36.362Z,98059.30
2019-04-16T11:43:07.768Z,98063.83
2019-04-16T11:45:38.877Z,98065.87
2019-04-16T11:48:10.062Z,98059.69
2019-04-16T11:50:41.124Z,98063.91
2019-04-16T11:53:12.475Z,98061.49
2019-04-16T11:55:43.363Z,98061.84
2019-04-16T11:58:15.310Z,98057.37
2019-04-16T12:00:48.093Z,98061.22
2019-04-16T12:03:19.975Z,98061.84
2019-04-16T12:06:09.520Z,98065.75
2019-04-16T12:08:44.935Z,98053.23
2019-04-16T12:11:20.734Z,98052.68
2019-04-16T12:14:09.950Z,98043.02
2019-04-16T12:16:48.928Z,98050.64
2019-04-16T12:19:24.454Z,98041.87
2019-04-16T12:22:06.249Z,98040.81
2019-04-16T12:24:50.906Z,98047.05
2019-04-16T12:27:35.863Z,98046.67
2019-04-16T12:30:13.201Z,98038.04
2019-04-16T12:33:07.446Z,98037.20
2019-04-16T12:35:51.908Z,98029.67
2019-04-16T12:38:27.442Z,98030.42
2019-04-16T12:41:00.011Z,98032.63
2019-04-16T12:43:32.797Z,98024.63
2019-04-16T12:46:20.792Z,98025.19
2019-04-16T12:49:02.614Z,98028.84
2019-04-16T12:51:44.216Z,98043.23
2019-04-16T12:54:33.633Z,98032.16
2019-04-16T12:57:06.323Z,98025.22
2019-04-16T12:59:48.615Z,98025.89
2019-04-16T13:02:25.371Z,98012.66
2019-04-16T13:05:07.420Z,98024.72
2019-04-16T13:07:43.599Z,98011.91
2019-04-16T13:10:16.764Z,98019.24
2019-04-16T13:12:56.269Z,98019.24
2019-04-16T13:15:45.000Z,98016.33
2019-04-16T13:18:23.938Z,98013.46
2019-04-16T13:20:57.561Z,98013.46
2019-04-16T13:23:40.022Z,98016.63
2019-04-16T13:26:15.579Z,97999.62
2019-04-16T13:28:46.774Z,98006.36
2019-04-16T13:31:18.095Z,97996.91
2019-04-16T13:33:50.963Z,98004.66
2019-04-16T13:36:26.739Z,97996.16
2019-04-16T13:41:50.163Z,97993.56
2019-04-16T13:44:41.296Z,98001.05
2019-04-16T13:47:14.184Z,97997.46
2019-04-16T13:49:50.224Z,98005.91
2019-04-16T13:52:25.128Z,98005.91
2019-04-16T13:55:14.337Z,98007.11
2019-04-16T13:57:49.448Z,98005.42
2019-04-16T14:00:38.943Z,97993.77
2019-04-16T14:03:13.551Z,98006.03
2019-04-16T14:05:45.046Z,97990.48
2019-04-16T14:08:16.146Z,97990.48
2019-04-16T14:10:47.635Z,97997.66
2019-04-16T14:13:19.251Z,97978.89
2019-04-16T14:15:50.517Z,97978.89
2019-04-16T14:18:22.016Z,97990.64
2019-04-16T14:20:53.637Z,97987.86
2019-04-16T14:23:25.488Z,97983.36
2019-04-16T14:25:56.870Z,97990.81
2019-04-16T14:28:28.052Z,97978.23
2019-04-16T14:30:59.598Z,97992.05
2019-04-16T14:36:24.617Z,97985.74
2019-04-16T14:38:57.523Z,97988.39
2019-04-16T14:41:27.615Z,97988.39
2019-04-16T14:44:03.821Z,97989.53
2019-04-16T14:46:34.909Z,97989.53
2019-04-16T14:49:06.197Z,97991.89
2019-04-16T14:51:37.506Z,97982.95
2019-04-16T14:54:12.970Z,97992.78
2019-04-16T14:56:49.628Z,97994.73
2019-04-16T14:59:33.588Z,98002.96
2019-04-16T15:01:57.055Z,98003.20
2019-04-16T15:04:46.228Z,98000.77
2019-04-16T15:07:21.478Z,98000.36
2019-04-16T15:10:11.082Z,97996.76
2019-04-16T15:12:46.400Z,97999.17
2019-04-16T15:15:19.130Z,97995.41
2019-04-16T15:18:06.859Z,97995.80
2019-04-16T15:20:42.824Z,97999.75
2019-04-16T15:23:17.810Z,98000.89
2019-04-16T15:25:57.022Z,97998.42
2019-04-16T15:28:35.556Z,98004.72
2019-04-16T15:31:24.846Z,97995.81
2019-04-16T15:34:13.515Z,98008.11
2019-04-16T15:36:49.927Z,98008.59
2019-04-16T15:39:20.978Z,97998.47
2019-04-16T15:41:53.680Z,98003.70
2019-04-16T15:44:26.251Z,98004.83
2019-04-16T15:47:03.978Z,98005.55
2019-04-16T15:49:45.487Z,97999.51
2019-04-16T15:52:33.713Z,98004.84
2019-04-16T15:55:07.897Z,98012.58
2019-04-16T15:57:51.693Z,97998.73
2019-04-16T16:00:36.941Z,98012.15
2019-04-16T16:03:25.650Z,98015.52
2019-04-16T16:06:04.145Z,98014.20
2019-04-16T16:08:38.412Z,98014.69
2019-04-16T16:11:17.450Z,98014.28
2019-04-16T16:13:48.543Z,98010.88
2019-04-16T16:16:19.871Z,98013.36
2019-04-16T16:18:50.811Z,98020.67
2019-04-16T16:21:21.867Z,98014.92
2019-04-16T16:23:53.269Z,98016.03
2019-04-16T16:26:24.289Z,98016.12
2019-04-16T16:28:55.385Z,98017.50
2019-04-16T16:31:32.097Z,98015.59
2019-04-16T16:34:01.344Z,98022.85
2019-04-16T16:36:36.296Z,98018.28
2019-04-16T16:39:07.525Z,98025.16
2019-04-16T16:41:38.727Z,98023.28
2019-04-16T16:44:09.668Z,98025.24
2019-04-16T16:46:58.406Z,98027.17
2019-04-16T16:49:29.803Z,98032.34
2019-04-16T16:52:16.837Z,98038.57
2019-04-16T16:54:49.863Z,98032.08
2019-04-16T16:57:22.658Z,98041.98
2019-04-16T16:59:57.477Z,98040.53
2019-04-16T17:02:32.744Z,98042.67
2019-04-16T17:05:06.404Z,98051.47
2019-04-16T17:07:37.443Z,98048.56
2019-04-16T17:10:08.867Z,98049.89
2019-04-16T17:12:39.880Z,98046.39
2019-04-16T17:15:11.145Z,98050.13
2019-04-16T17:17:42.910Z,98054.09
2019-04-16T17:20:14.524Z,98049.59
2019-04-16T17:22:45.674Z,98055.38
2019-04-16T17:25:16.826Z,98053.05
2019-04-16T17:27:51.471Z,98059.70
2019-04-16T17:30:20.664Z,98055.83
2019-04-16T17:32:52.019Z,98064.14
2019-04-16T17:35:23.253Z,98065.16
2019-04-16T17:38:02.709Z,98070.72
2019-04-16T17:40:51.089Z,98070.77
2019-04-16T17:43:30.976Z,98074.46
2019-04-16T17:46:15.176Z,98080.20
2019-04-16T17:48:48.130Z,98083.72
2019-04-16T17:51:26.751Z,98088.87
2019-04-16T17:54:02.769Z,98092.36
2019-04-16T17:56:40.776Z,98103.14
2019-04-16T17:59:13.701Z,98104.45
2019-04-16T18:01:48.976Z,98110.80
2019-04-16T18:04:24.310Z,98103.80
2019-04-16T18:06:59.496Z,98112.96
2019-04-16T18:09:36.656Z,98124.64
2019-04-16T18:12:21.681Z,98123.39
2019-04-16T18:15:00.733Z,98123.34
2019-04-16T18:17:46.236Z,98133.52
2019-04-16T18:20:08.432Z,98135.41
2019-04-16T18:22:57.727Z,98137.01
2019-04-16T18:25:33.456Z,98140.31
2019-04-16T18:28:06.802Z,98140.79
2019-04-16T18:30:45.785Z,98140.56
2019-04-16T18:33:21.457Z,98150.60
2019-04-16T18:36:17.070Z,98149.55
2019-04-16T18:39:05.519Z,98155.94
2019-04-16T18:41:38.889Z,98162.59
2019-04-16T18:44:14.637Z,98164.84
2019-04-16T18:46:50.313Z,98163.36
2019-04-16T18:49:22.842Z,98175.55
2019-04-16T18:51:52.995Z,98180.68
2019-04-16T18:54:24.036Z,98178.43
2019-04-16T18:56:54.928Z,98179.65
2019-04-16T18:59:26.072Z,98182.15
2019-04-16T19:02:00.115Z,98186.37
2019-04-16T19:04:31.381Z,98190.86
2019-04-16T19:07:02.402Z,98198.55
2019-04-16T19:09:33.747Z,98197.11
2019-04-16T19:12:04.777Z,98209.09
2019-04-16T19:14:36.721Z,98211.23
2019-04-16T19:17:08.392Z,98208.67
2019-04-16T19:19:44.615Z,98213.23
2019-04-16T19:22:15.851Z,98218.61
2019-04-16T19:24:45.820Z,98219.80
2019-04-16T19:27:16.974Z,98225.56
2019-04-16T19:29:47.896Z,98228.19
2019-04-16T19:32:19.064Z,98233.01
2019-04-16T19:34:49.906Z,98228.73
2019-04-16T19:37:23.916Z,98234.44
2019-04-16T19:39:54.832Z,98236.98
2019-04-16T19:42:28.753Z,98240.41
2019-04-16T19:44:58.686Z,98241.20
2019-04-16T19:47:29.689Z,98247.06
2019-04-16T19:50:00.521Z,98253.48
2019-04-16T19:52:31.751Z,98247.03
2019-04-16T19:55:02.574Z,98243.83
2019-04-16T19:57:35.004Z,98256.61
2019-04-16T20:00:07.912Z,98251.38
2019-04-16T20:02:37.892Z,98251.70
2019-04-16T20:05:08.985Z,98251.92
2019-04-16T20:07:39.833Z,98252.42
2019-04-16T20:10:11.888Z,98252.72
2019-04-16T20:12:42.744Z,98258.42
2019-04-16T20:15:13.923Z,98253.58
2019-04-16T20:17:44.844Z,98251.81
2019-04-16T20:20:16.055Z,98262.14
2019-04-16T20:22:47.108Z,98262.95
2019-04-16T20:25:18.224Z,98262.34
2019-04-16T20:27:49.101Z,98261.64
2019-04-16T20:30:29.617Z,98267.96
2019-04-16T20:33:02.461Z,98261.23
2019-04-16T20:35:32.633Z,98266.78
2019-04-16T20:38:03.755Z,98271.01
2019-04-16T20:40:34.603Z,98268.14
2019-04-16T20:43:05.912Z,98272.23
2019-04-16T20:45:36.711Z,98267.20
2019-04-16T20:48:09.087Z,98267.11
2019-04-16T20:50:40.291Z,98269.20
2019-04-16T20:53:11.329Z,98268.35
2019-04-16T20:55:47.095Z,98275.88
2019-04-16T20:58:15.061Z,98271.20
2019-04-16T21:00:47.541Z,98275.21
2019-04-16T21:03:22.310Z,98280.73
2019-04-16T21:05:59.262Z,98278.22
2019-04-16T21:08:25.167Z,98277.18
2019-04-16T21:10:59.203Z,98282.14
2019-04-16T21:13:29.273Z,98285.83
2019-04-16T21:16:01.321Z,98283.80
2019-04-16T21:18:32.907Z,98281.65
2019-04-16T21:21:04.010Z,98283.58
2019-04-16T21:23:35.477Z,98292.41
2019-04-16T21:26:06.824Z,98289.86
2019-04-16T21:28:44.963Z,98288.88
2019-04-16T21:31:20.209Z,98294.50
2019-04-16T21:33:58.693Z,98302.08
2019-04-16T21:36:47.579Z,98302.08
2019-04-16T21:39:23.031Z,98303.06
2019-04-16T21:42:02.567Z,98296.53
2019-04-16T21:44:33.335Z,98299.80
2019-04-16T21:47:04.360Z,98305.25
2019-04-16T21:49:38.753Z,98305.31
2019-04-16T21:52:08.177Z,98309.59
2019-04-16T21:54:39.310Z,98310.80
2019-04-16T21:57:13.496Z,98311.47
2019-04-16T21:59:42.463Z,98315.58
2019-04-16T22:02:17.915Z,98310.64
2019-04-16T22:04:49.114Z,98315.23
2019-04-16T22:07:24.236Z,98318.93
2019-04-16T22:09:52.824Z,98323.13
2019-04-16T22:12:23.872Z,98324.63
2019-04-16T22:14:55.333Z,98323.08
2019-04-16T22:17:26.495Z,98324.38
2019-04-16T22:20:01.313Z,98324.56
2019-04-16T22:22:30.110Z,98331.43
2019-04-16T22:25:01.307Z,98328.55
2019-04-16T22:27:32.139Z,98332.44
2019-04-16T22:30:04.824Z,98334.68
2019-04-16T22:32:36.166Z,98342.23
2019-04-16T22:35:09.172Z,98346.02
2019-04-16T22:37:40.176Z,98342.84
2019-04-16T22:40:22.578Z,98350.48
2019-04-16T22:43:06.211Z,98350.20
2019-04-16T22:45:45.239Z,98342.45
2019-04-16T22:48:19.030Z,98349.21
2019-04-16T22:50:49.963Z,98349.98
2019-04-16T22:53:21.064Z,98351.83
2019-04-16T22:55:56.448Z,98352.73
2019-04-16T22:58:25.712Z,98354.81
2019-04-16T23:00:58.209Z,98356.63
2019-04-16T23:03:29.222Z,98357.79
2019-04-16T23:06:01.388Z,98358.81
2019-04-16T23:08:32.954Z,98362.13
2019-04-16T23:11:03.855Z,98365.44
2019-04-16T23:13:33.842Z,98364.77
2019-04-16T23:16:05.279Z,98364.48
2019-04-16T23:18:36.156Z,98366.99
2019-04-16T23:21:10.016Z,98362.87
2019-04-16T23:23:39.799Z,98372.24
2019-04-16T23:26:10.830Z,98369.53
2019-04-16T23:28:42.454Z,98378.59
2019-04-16T23:31:14.052Z,98379.14
2019-04-16T23:33:45.046Z,98377.13
2019-04-16T23:36:16.708Z,98380.78
2019-04-16T23:38:47.652Z,98380.22
2019-04-16T23:41:18.884Z,98377.36
2019-04-16T23:43:54.464Z,98376.64
2019-04-16T23:46:37.749Z,98383.13
2019-04-16T23:49:26.459Z,98388.02
2019-04-16T23:52:11.528Z,98382.14
2019-04-16T23:54:44.874Z,98385.63
2019-04-16T23:57:17.620Z,98390.68
2019-04-16T23:59:58.837Z,98388.88
